Time;durP1;ratioP1;P1;durP2;ratioP2;P2;SDS_P1;SDS_P2;PMS_P1;PMS_P2;Temp;Humidity;BMP_temperature;BMP_pressure;BME280_temperature;BME280_humidity;BME280_pressure;Samples;Min_cycle;Max_cycle;Signal;HPM_P1;HPM_P2
2022/10/02 00:00:39;;;;;;;4.50;2.85;;;;;;;;;;10408941;28;20037;-64
2022/10/02 00:05:41;;;;;;;5.25;3.55;;;;;;;;;;10409293;28;20029;-67
2022/10/02 00:10:50;;;;;;;4.85;2.83;;;;;;;;;;10408638;28;20029;-57
2022/10/02 00:15:51;;;;;;;4.50;2.55;;;;;;;;;;10408396;28;20381;-56
2022/10/02 00:21:03;;;;;;;5.40;2.90;;;;;;;;;;10408639;28;20026;-55
2022/10/02 00:26:07;;;;;;;7.90;3.65;;;;;;;;;;10408361;28;20468;-56
2022/10/02 00:31:27;;;;;;;5.97;3.28;;;;;;;;;;10408403;28;20105;-54
2022/10/02 00:36:27;;;;;;;3.35;2.70;;;;;;;;;;10408360;28;20060;-56
2022/10/02 00:41:46;;;;;;;3.53;2.60;;;;;;;;;;10408644;28;20375;-56
2022/10/02 00:46:58;;;;;;;4.53;2.55;;;;;;;;;;10415536;28;20569;-53
2022/10/02 00:51:59;;;;;;;4.57;2.30;;;;;;;;;;10416396;28;20029;-55
2022/10/02 00:57:02;;;;;;;6.75;2.75;;;;;;;;;;10415674;28;20473;-54
2022/10/02 01:02:21;;;;;;;5.18;2.80;;;;;;;;;;10415321;28;20033;-54
2022/10/02 01:07:21;;;;;;;4.32;2.78;;;;;;;;;;10414981;28;20292;-53
2022/10/02 01:12:22;;;;;;;5.10;2.75;;;;;;;;;;10414900;28;20265;-54
2022/10/02 01:17:33;;;;;;;3.83;2.67;;;;;;;;;;10414948;28;20029;-55
2022/10/02 01:22:36;;;;;;;5.60;2.95;;;;;;;;;;10414425;28;20124;-56
2022/10/02 01:27:37;;;;;;;2.60;2.40;;;;;;;;;;10414532;28;20044;-54
2022/10/02 01:32:39;;;;;;;3.67;2.53;;;;;;;;;;10414549;28;20025;-55
2022/10/02 01:37:41;;;;;;;9.20;2.78;;;;;;;;;;10414247;28;20029;-55
2022/10/02 01:42:42;;;;;;;4.03;3.00;;;;;;;;;;10414138;28;20470;-56
2022/10/02 01:47:45;;;;;;;3.50;2.50;;;;;;;;;;10413939;28;20170;-55
2022/10/02 01:52:47;;;;;;;3.85;2.65;;;;;;;;;;10412521;28;20059;-57
2022/10/02 01:58:05;;;;;;;3.13;2.80;;;;;;;;;;10413402;28;20124;-56
2022/10/02 02:03:15;;;;;;;3.17;2.53;;;;;;;;;;10413078;28;20056;-56
2022/10/02 02:08:36;;;;;;;3.17;2.47;;;;;;;;;;10412872;28;20065;-55
2022/10/02 02:13:55;;;;;;;2.72;2.30;;;;;;;;;;10371698;28;20053;-55
2022/10/02 02:19:02;;;;;;;2.42;2.22;;;;;;;;;;10413018;28;20037;-56
2022/10/02 02:24:05;;;;;;;3.95;2.63;;;;;;;;;;10412830;28;20045;-57
2022/10/02 02:29:07;;;;;;;4.75;2.15;;;;;;;;;;10412060;28;20113;-56
2022/10/02 02:34:10;;;;;;;4.50;2.60;;;;;;;;;;10411891;28;20549;-56
2022/10/02 02:39:13;;;;;;;6.43;2.47;;;;;;;;;;10411827;28;20139;-56
2022/10/02 02:44:16;;;;;;;2.88;2.50;;;;;;;;;;10411957;28;20037;-56
2022/10/02 02:49:17;;;;;;;3.92;2.50;;;;;;;;;;10411389;28;20021;-55
2022/10/02 02:54:27;;;;;;;5.22;2.42;;;;;;;;;;10410940;28;20025;-56
2022/10/02 02:59:30;;;;;;;2.72;2.08;;;;;;;;;;10411347;28;20025;-55
2022/10/02 03:04:30;;;;;;;2.40;2.20;;;;;;;;;;10410023;28;20033;-56
2022/10/02 03:09:32;;;;;;;5.10;2.57;;;;;;;;;;10411037;28;20026;-56
2022/10/02 03:14:45;;;;;;;8.43;2.40;;;;;;;;;;10410254;28;20498;-56
2022/10/02 03:19:49;;;;;;;3.70;2.22;;;;;;;;;;10410264;28;20024;-57
2022/10/02 03:24:52;;;;;;;2.50;2.20;;;;;;;;;;10410332;28;20041;-56
2022/10/02 03:30:03;;;;;;;2.83;2.08;;;;;;;;;;10409795;28;20116;-56
2022/10/02 03:35:06;;;;;;;6.38;2.38;;;;;;;;;;10391529;28;20523;-65
2022/10/02 03:40:06;;;;;;;3.67;2.53;;;;;;;;;;10408849;28;20104;-61
2022/10/02 03:45:07;;;;;;;2.85;2.10;;;;;;;;;;10409136;28;20560;-62
2022/10/02 03:50:08;;;;;;;3.53;2.20;;;;;;;;;;10409104;28;20531;-56
2022/10/02 03:55:11;;;;;;;2.35;1.98;;;;;;;;;;10408457;28;20142;-56
2022/10/02 04:00:11;;;;;;;4.68;2.28;;;;;;;;;;10408335;28;20468;-58
2022/10/02 04:05:27;;;;;;;3.55;2.08;;;;;;;;;;10408629;28;20044;-56
2022/10/02 04:10:35;;;;;;;2.35;1.90;;;;;;;;;;10409010;28;20037;-57
2022/10/02 04:15:56;;;;;;;2.57;2.00;;;;;;;;;;10408456;28;20456;-54
2022/10/02 04:21:03;;;;;;;5.57;2.35;;;;;;;;;;10416261;28;20037;-54
2022/10/02 04:26:06;;;;;;;3.78;2.00;;;;;;;;;;10417124;28;20025;-65
2022/10/02 04:31:11;;;;;;;3.30;2.13;;;;;;;;;;10416578;28;20032;-56
2022/10/02 04:36:21;;;;;;;3.33;2.13;;;;;;;;;;10417021;28;20053;-55
2022/10/02 04:41:31;;;;;;;1.92;1.73;;;;;;;;;;10416278;28;20053;-52
2022/10/02 04:46:51;;;;;;;2.58;1.90;;;;;;;;;;10416696;28;20029;-57
2022/10/02 04:52:06;;;;;;;3.10;2.10;;;;;;;;;;10391554;28;20393;-55
2022/10/02 04:57:13;;;;;;;5.00;2.13;;;;;;;;;;10415651;28;20026;-57
2022/10/02 05:02:22;;;;;;;3.90;2.15;;;;;;;;;;10415386;28;20033;-56
2022/10/02 05:07:33;;;;;;;4.65;2.10;;;;;;;;;;10415140;28;20068;-54
2022/10/02 05:12:45;;;;;;;5.43;1.98;;;;;;;;;;10414755;28;20042;-57
2022/10/02 05:18:04;;;;;;;3.22;1.90;;;;;;;;;;10414895;28;20025;-53
2022/10/02 05:23:07;;;;;;;8.93;2.08;;;;;;;;;;10414504;28;20025;-55
2022/10/02 05:28:10;;;;;;;8.43;2.10;;;;;;;;;;10414519;28;20115;-55
2022/10/02 05:33:10;;;;;;;2.78;1.83;;;;;;;;;;10414361;28;20048;-54
2022/10/02 05:38:34;;;;;;;7.85;2.00;;;;;;;;;;10413920;28;20021;-55
2022/10/02 05:43:39;;;;;;;4.05;1.90;;;;;;;;;;10402949;28;20242;-55
2022/10/02 05:48:55;;;;;;;3.67;1.80;;;;;;;;;;10414263;28;20152;-55
2022/10/02 05:53:59;;;;;;;3.45;2.10;;;;;;;;;;10413549;28;20334;-56
2022/10/02 05:59:06;;;;;;;3.53;2.00;;;;;;;;;;10413293;28;20029;-53
2022/10/02 06:04:27;;;;;;;10.57;2.53;;;;;;;;;;10412921;28;20033;-52
2022/10/02 06:09:33;;;;;;;8.75;2.35;;;;;;;;;;10399381;28;20041;-53
2022/10/02 06:14:36;;;;;;;2.40;1.88;;;;;;;;;;10412372;28;20500;-52
2022/10/02 06:19:39;;;;;;;13.57;2.47;;;;;;;;;;10412433;28;20025;-54
2022/10/02 06:24:45;;;;;;;3.33;2.20;;;;;;;;;;10412150;28;20060;-55
2022/10/02 06:29:49;;;;;;;4.20;2.10;;;;;;;;;;10394401;28;20055;-53
2022/10/02 06:34:49;;;;;;;3.33;1.90;;;;;;;;;;10411986;28;20053;-53
2022/10/02 06:39:52;;;;;;;4.53;1.90;;;;;;;;;;10411079;28;20064;-55
2022/10/02 06:44:55;;;;;;;4.72;1.98;;;;;;;;;;10411352;28;20116;-54
2022/10/02 06:49:56;;;;;;;3.88;2.08;;;;;;;;;;10411374;28;20160;-55
2022/10/02 06:55:21;;;;;;;3.88;2.00;;;;;;;;;;10411027;28;20373;-54
2022/10/02 07:00:21;;;;;;;2.67;2.00;;;;;;;;;;10411034;28;20108;-54
2022/10/02 07:05:31;;;;;;;4.13;2.05;;;;;;;;;;10410851;28;20037;-55
2022/10/02 07:10:41;;;;;;;4.97;1.90;;;;;;;;;;10411080;28;20229;-53
2022/10/02 07:16:05;;;;;;;10.07;2.13;;;;;;;;;;10410883;28;20106;-53
2022/10/02 07:21:08;;;;;;;2.53;1.60;;;;;;;;;;10409994;28;20030;-53
2022/10/02 07:26:29;;;;;;;6.53;1.63;;;;;;;;;;10410006;28;20462;-53
2022/10/02 07:31:35;;;;;;;6.93;2.05;;;;;;;;;;10395488;28;20037;-53
2022/10/02 07:36:54;;;;;;;3.17;1.70;;;;;;;;;;10410099;28;20068;-53
2022/10/02 07:41:57;;;;;;;7.32;1.58;;;;;;;;;;10409929;28;20051;-53
2022/10/02 07:47:06;;;;;;;4.15;1.77;;;;;;;;;;10409079;28;20025;-50
2022/10/02 07:52:16;;;;;;;2.33;1.38;;;;;;;;;;10408954;28;20036;-55
2022/10/02 07:57:16;;;;;;;6.10;1.90;;;;;;;;;;10409958;28;20049;-55
2022/10/02 08:02:27;;;;;;;2.03;1.67;;;;;;;;;;10408921;28;20540;-55
2022/10/02 08:07:28;;;;;;;3.78;1.55;;;;;;;;;;10408913;28;20112;-55
2022/10/02 08:12:36;;;;;;;1.88;1.60;;;;;;;;;;10408600;28;20128;-55
2022/10/02 08:17:50;;;;;;;2.27;1.70;;;;;;;;;;10408393;28;20040;-54
2022/10/02 08:22:54;;;;;;;2.60;1.75;;;;;;;;;;10408458;28;20883;-56
2022/10/02 08:27:58;;;;;;;4.15;1.75;;;;;;;;;;10408407;28;20072;-55
2022/10/02 08:32:59;;;;;;;1.65;1.50;;;;;;;;;;10408246;28;20021;-55
2022/10/02 08:38:11;;;;;;;2.53;1.50;;;;;;;;;;10408077;28;20026;-53
2022/10/02 08:43:17;;;;;;;2.10;1.70;;;;;;;;;;10407842;28;20071;-55
2022/10/02 08:48:22;;;;;;;2.25;1.58;;;;;;;;;;10408328;28;20405;-54
2022/10/02 08:53:31;;;;;;;1.83;1.63;;;;;;;;;;10407822;28;20060;-53
2022/10/02 08:58:42;;;;;;;4.10;1.83;;;;;;;;;;10407659;28;20030;-53
2022/10/02 09:03:58;;;;;;;1.30;1.20;;;;;;;;;;10410572;28;20037;-54
2022/10/02 09:09:13;;;;;;;3.50;1.60;;;;;;;;;;10415285;28;20408;-53
2022/10/02 09:14:17;;;;;;;2.28;1.67;;;;;;;;;;10414750;28;20041;-54
2022/10/02 09:19:30;;;;;;;1.60;1.33;;;;;;;;;;10415684;28;20036;-55
2022/10/02 09:24:50;;;;;;;3.28;1.30;;;;;;;;;;10415084;28;20110;-56
2022/10/02 09:29:51;;;;;;;1.55;1.42;;;;;;;;;;10413806;28;20041;-53
2022/10/02 09:34:57;;;;;;;2.35;1.77;;;;;;;;;;10414533;28;20459;-54
2022/10/02 09:40:07;;;;;;;5.55;1.33;;;;;;;;;;10414031;28;20032;-54
2022/10/02 09:45:27;;;;;;;3.30;1.60;;;;;;;;;;10414139;28;20071;-54
2022/10/02 09:50:33;;;;;;;3.17;1.80;;;;;;;;;;10414251;28;20082;-54
2022/10/02 09:55:52;;;;;;;3.08;1.88;;;;;;;;;;10413451;28;20053;-54
2022/10/02 10:01:00;;;;;;;1.60;1.50;;;;;;;;;;10413450;28;20034;-53
2022/10/02 10:06:06;;;;;;;1.92;1.52;;;;;;;;;;10413679;28;20116;-52
2022/10/02 10:11:08;;;;;;;2.10;1.67;;;;;;;;;;10411466;28;20469;-54
2022/10/02 10:16:28;;;;;;;2.45;1.48;;;;;;;;;;10411225;28;20045;-55
2022/10/02 10:21:36;;;;;;;2.33;1.45;;;;;;;;;;10412179;28;20074;-55
2022/10/02 10:26:49;;;;;;;3.10;1.80;;;;;;;;;;10411689;28;20065;-52
2022/10/02 10:31:49;;;;;;;1.70;1.60;;;;;;;;;;10411543;28;20276;-55
2022/10/02 10:42:32;;;;;;;3.88;1.40;;;;;;;;;;10412240;28;20033;-54
2022/10/02 10:47:39;;;;;;;2.03;1.48;;;;;;;;;;10410836;28;20030;-54
2022/10/02 10:52:54;;;;;;;1.83;1.40;;;;;;;;;;10410816;28;20373;-56
2022/10/02 10:58:08;;;;;;;2.65;1.63;;;;;;;;;;10410859;28;20385;-54
2022/10/02 11:03:15;;;;;;;1.45;1.35;;;;;;;;;;10409975;28;20546;-51
2022/10/02 11:08:27;;;;;;;2.67;1.42;;;;;;;;;;10410601;28;20288;-55
2022/10/02 11:13:46;;;;;;;2.05;1.20;;;;;;;;;;10408638;28;20049;-54
2022/10/02 11:18:55;;;;;;;2.63;1.60;;;;;;;;;;10407322;28;20408;-60
2022/10/02 11:23:55;;;;;;;1.45;1.35;;;;;;;;;;10405638;28;20033;-55
2022/10/02 11:28:59;;;;;;;1.80;1.50;;;;;;;;;;10405383;28;20030;-53
2022/10/02 11:34:24;;;;;;;1.60;1.50;;;;;;;;;;10407556;28;20057;-54
2022/10/02 11:39:33;;;;;;;2.25;1.63;;;;;;;;;;10407014;28;20075;-54
2022/10/02 11:44:39;;;;;;;1.50;1.40;;;;;;;;;;10407526;28;20037;-55
2022/10/02 11:49:39;;;;;;;2.53;1.50;;;;;;;;;;10407532;28;20181;-55
2022/10/02 11:54:44;;;;;;;4.22;1.60;;;;;;;;;;10407501;28;20217;-54
2022/10/02 11:59:54;;;;;;;2.10;1.45;;;;;;;;;;10407781;28;20025;-54
2022/10/02 12:05:20;;;;;;;1.50;1.40;;;;;;;;;;10406963;28;20553;-53
2022/10/02 12:10:29;;;;;;;1.52;1.40;;;;;;;;;;10407065;28;20507;-54
2022/10/02 12:15:49;;;;;;;1.67;1.38;;;;;;;;;;10367746;28;1158420;-50
2022/10/02 12:31:34;;;;;;;2.83;1.33;;;;;;;;;;10408117;28;20038;-54
2022/10/02 12:36:34;;;;;;;1.52;1.38;;;;;;;;;;10408207;28;20026;-55
2022/10/02 12:41:44;;;;;;;1.17;1.13;;;;;;;;;;10413201;28;20033;-55
2022/10/02 12:46:58;;;;;;;1.42;1.33;;;;;;;;;;10415506;28;20036;-54
2022/10/02 12:52:26;;;;;;;1.50;1.38;;;;;;;;;;10414373;28;20059;-54
2022/10/02 12:57:51;;;;;;;1.95;1.27;;;;;;;;;;10415708;28;20559;-53
2022/10/02 13:02:58;;;;;;;1.45;1.35;;;;;;;;;;10415854;28;20024;-51
2022/10/02 13:08:09;;;;;;;1.30;1.20;;;;;;;;;;10415741;28;20044;-56
2022/10/02 13:13:30;;;;;;;1.10;1.02;;;;;;;;;;10415120;28;20567;-53
2022/10/02 13:18:51;;;;;;;1.30;1.10;;;;;;;;;;10415228;28;20037;-54
2022/10/02 13:24:02;;;;;;;1.63;1.25;;;;;;;;;;10415455;28;20041;-55
2022/10/02 13:29:12;;;;;;;1.63;1.30;;;;;;;;;;10414227;28;20453;-52
2022/10/02 13:34:39;;;;;;;3.22;1.55;;;;;;;;;;10413930;28;20523;-56
2022/10/02 13:39:53;;;;;;;2.20;1.30;;;;;;;;;;10383402;28;20229;-55
2022/10/02 13:44:59;;;;;;;1.48;1.10;;;;;;;;;;10414329;28;20444;-55
2022/10/02 13:50:08;;;;;;;1.77;1.40;;;;;;;;;;10413664;28;20121;-55
2022/10/02 13:55:11;;;;;;;2.08;1.48;;;;;;;;;;10413434;28;20021;-56
2022/10/02 14:00:21;;;;;;;2.58;1.30;;;;;;;;;;10413328;28;20025;-54
2022/10/02 14:05:33;;;;;;;2.15;1.50;;;;;;;;;;10413127;28;20056;-51
2022/10/02 14:10:53;;;;;;;2.15;1.40;;;;;;;;;;10413062;28;20037;-57
2022/10/02 14:16:11;;;;;;;2.08;1.38;;;;;;;;;;10412447;28;20057;-54
2022/10/02 14:21:11;;;;;;;;;;;;;;;;;;10412747;28;20025;-54
2022/10/02 14:26:12;;;;;;;1.60;1.50;;;;;;;;;;10411766;28;20264;-55
2022/10/02 14:31:13;;;;;;;1.17;1.10;;;;;;;;;;10412121;28;20025;-54
2022/10/02 14:36:17;;;;;;;1.75;1.25;;;;;;;;;;10411869;28;20434;-55
2022/10/02 14:41:26;;;;;;;1.55;1.10;;;;;;;;;;10411698;28;20036;-54
2022/10/02 14:46:36;;;;;;;1.30;1.20;;;;;;;;;;10411053;28;20413;-54
2022/10/02 14:51:55;;;;;;;2.42;1.15;;;;;;;;;;10411656;28;20029;-54
2022/10/02 14:56:58;;;;;;;1.55;1.25;;;;;;;;;;10411006;28;20053;-55
2022/10/02 15:02:02;;;;;;;2.13;1.30;;;;;;;;;;10410377;28;20029;-55
2022/10/02 15:07:05;;;;;;;1.52;1.20;;;;;;;;;;10410416;28;20036;-55
2022/10/02 15:12:05;;;;;;;1.75;1.33;;;;;;;;;;10410070;28;20046;-55
2022/10/02 15:22:34;;;;;;;1.33;1.23;;;;;;;;;;10409886;28;20033;-55
2022/10/02 15:27:43;;;;;;;1.77;1.10;;;;;;;;;;10410291;28;20065;-55
2022/10/02 15:32:51;;;;;;;1.30;1.20;;;;;;;;;;10410000;28;20033;-55
2022/10/02 15:37:51;;;;;;;1.30;1.20;;;;;;;;;;10409749;28;20069;-53
2022/10/02 15:42:52;;;;;;;1.20;1.10;;;;;;;;;;10408968;28;20163;-53
2022/10/02 15:48:05;;;;;;;1.45;1.35;;;;;;;;;;10409234;28;20292;-53
2022/10/02 15:53:05;;;;;;;1.58;1.20;;;;;;;;;;10409298;28;20637;-55
2022/10/02 15:58:05;;;;;;;1.67;1.42;;;;;;;;;;10409257;28;20277;-54
2022/10/02 16:03:06;;;;;;;1.05;1.05;;;;;;;;;;10405585;28;20025;-54
2022/10/02 16:08:12;;;;;;;2.65;1.20;;;;;;;;;;10409721;28;20063;-54
2022/10/02 16:13:15;;;;;;;1.05;1.00;;;;;;;;;;10407924;28;20045;-52
2022/10/02 16:18:34;;;;;;;1.20;1.10;;;;;;;;;;10408543;28;20374;-54
2022/10/02 16:23:47;;;;;;;1.05;0.90;;;;;;;;;;10407712;28;20025;-52
2022/10/02 16:28:52;;;;;;;1.38;1.27;;;;;;;;;;10407880;28;20036;-54
2022/10/02 16:33:53;;;;;;;1.38;1.20;;;;;;;;;;10407232;28;20195;-52
2022/10/02 16:39:12;;;;;;;2.00;1.10;;;;;;;;;;10408141;28;20193;-54
2022/10/02 16:44:29;;;;;;;1.27;1.13;;;;;;;;;;10407858;28;20099;-54
2022/10/02 16:49:29;;;;;;;1.08;0.90;;;;;;;;;;10408068;28;20029;-54
2022/10/02 16:54:46;;;;;;;4.57;1.38;;;;;;;;;;10407930;28;20029;-53
2022/10/02 16:59:50;;;;;;;1.58;1.20;;;;;;;;;;10408208;28;20053;-52
2022/10/02 17:04:59;;;;;;;1.92;1.20;;;;;;;;;;10407843;28;20040;-56
2022/10/02 17:10:29;;;;;;;1.23;1.13;;;;;;;;;;10407496;28;20064;-52
2022/10/02 17:15:39;;;;;;;1.55;1.10;;;;;;;;;;10390435;28;20123;-50
2022/10/02 17:20:41;;;;;;;1.20;1.10;;;;;;;;;;10407801;28;20033;-53
2022/10/02 17:26:04;;;;;;;3.60;1.30;;;;;;;;;;10411460;28;20041;-54
2022/10/02 17:31:08;;;;;;;1.17;1.10;;;;;;;;;;10415404;28;20041;-55
2022/10/02 17:36:27;;;;;;;1.55;1.05;;;;;;;;;;10415246;28;20029;-55
2022/10/02 17:41:33;;;;;;;1.45;1.27;;;;;;;;;;10414238;28;20029;-54
2022/10/02 17:46:57;;;;;;;1.88;1.15;;;;;;;;;;10414194;28;20041;-53
2022/10/02 17:56:26;;;;;;;1.60;1.00;;;;;;;;;;10403066;28;20041;-52
2022/10/02 17:57:23;;;;;;;1.10;1.08;;;;;;;;;;10413608;28;20036;-54
2022/10/02 18:02:30;;;;;;;1.20;1.10;;;;;;;;;;10413675;28;20037;-53
2022/10/02 18:07:30;;;;;;;1.15;1.05;;;;;;;;;;10413179;28;20397;-55
2022/10/02 18:12:50;;;;;;;1.55;1.25;;;;;;;;;;10413121;28;20053;-52
2022/10/02 18:18:06;;;;;;;1.30;1.20;;;;;;;;;;10413201;28;20025;-52
2022/10/02 18:23:07;;;;;;;1.10;0.90;;;;;;;;;;10412575;28;20022;-52
2022/10/02 18:28:26;;;;;;;0.97;0.97;;;;;;;;;;10412350;28;20037;-55
2022/10/02 18:33:45;;;;;;;1.30;1.20;;;;;;;;;;10413038;28;20100;-51
2022/10/02 18:38:52;;;;;;;1.30;1.20;;;;;;;;;;10411046;28;20021;-52
2022/10/02 18:44:13;;;;;;;1.20;1.10;;;;;;;;;;10411061;28;20362;-51
2022/10/02 18:49:25;;;;;;;3.13;1.02;;;;;;;;;;10410806;28;20033;-53
2022/10/02 18:54:46;;;;;;;1.05;1.05;;;;;;;;;;10411439;28;20049;-52
2022/10/02 18:59:49;;;;;;;1.23;1.13;;;;;;;;;;10369760;28;20040;-54
2022/10/02 19:04:49;;;;;;;1.13;1.02;;;;;;;;;;10410070;28;20052;-53
2022/10/02 19:09:51;;;;;;;3.33;1.10;;;;;;;;;;10408414;28;20025;-57
2022/10/02 19:14:54;;;;;;;1.33;1.23;;;;;;;;;;10409202;28;20053;-54
2022/10/02 19:19:56;;;;;;;1.65;1.10;;;;;;;;;;10410833;28;20056;-54
2022/10/02 19:25:03;;;;;;;11.55;1.50;;;;;;;;;;10409198;28;20481;-54
2022/10/02 19:30:05;;;;;;;7.65;1.55;;;;;;;;;;10409042;28;20068;-54
2022/10/02 19:35:18;;;;;;;9.60;1.48;;;;;;;;;;10409440;28;20039;-54
2022/10/02 19:40:22;;;;;;;11.63;1.75;;;;;;;;;;10409181;28;20423;-55
2022/10/02 19:45:25;;;;;;;5.50;1.45;;;;;;;;;;10409517;28;20507;-57
2022/10/02 19:50:35;;;;;;;6.72;1.30;;;;;;;;;;10409475;28;20034;-53
2022/10/02 19:55:37;;;;;;;6.70;1.60;;;;;;;;;;10408212;28;20358;-53
2022/10/02 20:00:38;;;;;;;3.25;1.80;;;;;;;;;;10409002;28;20087;-60
2022/10/02 20:05:38;;;;;;;2.58;1.17;;;;;;;;;;10408325;28;20074;-59
2022/10/02 20:10:42;;;;;;;6.00;1.48;;;;;;;;;;10408610;28;20037;-54
2022/10/02 20:21:29;;;;;;;6.10;1.42;;;;;;;;;;10410136;28;20051;-57
2022/10/02 20:26:32;;;;;;;18.25;3.13;;;;;;;;;;10408758;28;20035;-53
2022/10/02 20:31:45;;;;;;;12.10;2.72;;;;;;;;;;10408610;28;20032;-50
2022/10/02 20:37:05;;;;;;;10.55;2.53;;;;;;;;;;10408957;28;20061;-50
2022/10/02 20:42:15;;;;;;;6.25;1.98;;;;;;;;;;10406736;28;20124;-53
2022/10/02 20:47:35;;;;;;;4.40;2.15;;;;;;;;;;10408010;28;20068;-53
2022/10/02 20:53:00;;;;;;;9.88;2.00;;;;;;;;;;10407846;28;20412;-50
2022/10/02 20:58:19;;;;;;;6.57;1.52;;;;;;;;;;10408100;28;20068;-51
2022/10/02 21:03:38;;;;;;;8.13;2.20;;;;;;;;;;10415275;28;20030;-53
2022/10/02 21:08:42;;;;;;;6.60;1.70;;;;;;;;;;10415425;28;20036;-53
2022/10/02 21:14:08;;;;;;;8.95;1.42;;;;;;;;;;10415076;28;20058;-52
2022/10/02 21:19:27;;;;;;;4.63;1.60;;;;;;;;;;10379056;28;20381;-49
2022/10/02 21:24:36;;;;;;;8.88;1.98;;;;;;;;;;10411456;28;20021;-61
2022/10/02 21:29:37;;;;;;;7.10;1.80;;;;;;;;;;10410524;28;20032;-54
2022/10/02 21:34:48;;;;;;;4.63;1.42;;;;;;;;;;10408582;28;20025;-57
2022/10/02 21:39:51;;;;;;;2.50;1.73;;;;;;;;;;10412188;28;20028;-56
2022/10/02 21:45:01;;;;;;;3.42;1.33;;;;;;;;;;10411382;28;20033;-54
2022/10/02 21:50:01;;;;;;;4.13;1.60;;;;;;;;;;10412731;28;20108;-60
2022/10/02 21:55:20;;;;;;;4.55;1.48;;;;;;;;;;10412955;28;20116;-58
2022/10/02 22:00:21;;;;;;;5.97;1.58;;;;;;;;;;10412738;28;20052;-63
2022/10/02 22:05:24;;;;;;;2.60;1.63;;;;;;;;;;10413052;28;20030;-64
2022/10/02 22:10:50;;;;;;;6.60;1.48;;;;;;;;;;10412543;28;20529;-63
2022/10/02 22:16:13;;;;;;;2.92;1.40;;;;;;;;;;10411997;28;20509;-53
2022/10/02 22:21:30;;;;;;;26.15;3.95;;;;;;;;;;10374053;28;20044;-57
2022/10/02 22:26:49;;;;;;;18.42;2.45;;;;;;;;;;10411846;28;20026;-57
2022/10/02 22:33:08;;;;;;;8.70;2.30;;;;;;;;;;10412322;28;20029;-58
2022/10/02 22:37:35;;;;;;;14.50;2.38;;;;;;;;;;10411981;28;20076;-55
2022/10/02 22:42:41;;;;;;;8.07;2.10;;;;;;;;;;10411763;28;20033;-52
2022/10/02 22:47:47;;;;;;;6.18;2.05;;;;;;;;;;10412338;28;20404;-54
2022/10/02 22:52:47;;;;;;;7.97;1.98;;;;;;;;;;10411768;28;20025;-56
2022/10/02 22:58:01;;;;;;;8.40;2.05;;;;;;;;;;10411983;28;20041;-53
2022/10/02 23:03:04;;;;;;;5.18;1.90;;;;;;;;;;10411500;28;20044;-60
2022/10/02 23:08:30;;;;;;;6.65;1.95;;;;;;;;;;10411179;28;20548;-57
2022/10/02 23:13:35;;;;;;;6.68;2.03;;;;;;;;;;10405717;28;20037;-63
2022/10/02 23:18:35;;;;;;;6.47;2.08;;;;;;;;;;10410412;28;20029;-65
2022/10/02 23:23:49;;;;;;;10.00;2.25;;;;;;;;;;10409830;28;20026;-65
2022/10/02 23:29:04;;;;;;;11.55;1.80;;;;;;;;;;10410661;28;20116;-64
2022/10/02 23:34:28;;;;;;;7.88;2.30;;;;;;;;;;10409750;28;20052;-59
2022/10/02 23:39:33;;;;;;;5.82;2.00;;;;;;;;;;10399235;28;20554;-50
2022/10/02 23:44:35;;;;;;;7.25;2.50;;;;;;;;;;10392427;28;20484;-64
2022/10/02 23:49:37;;;;;;;2.08;1.52;;;;;;;;;;10409462;28;20029;-64
2022/10/02 23:54:51;;;;;;;4.43;1.92;;;;;;;;;;10409279;28;20030;-63
2022/10/02 23:59:52;;;;;;;5.65;2.05;;;;;;;;;;10409077;28;20026;-63
